createdAt,value
2018-09-15T00:00:40.384Z,10.43
2018-09-15T00:03:08.693Z,10.47
2018-09-15T00:05:36.733Z,11.00
2018-09-15T00:08:04.752Z,11.50
2018-09-15T00:10:32.901Z,12.50
2018-09-15T00:13:00.965Z,11.50
2018-09-15T00:15:28.989Z,10.60
2018-09-15T00:17:57.671Z,12.93
2018-09-15T00:20:25.765Z,12.17
2018-09-15T00:22:53.860Z,12.30
2018-09-15T00:25:22.195Z,10.77
2018-09-15T00:27:50.227Z,11.07
2018-09-15T00:30:18.307Z,10.93
2018-09-15T00:32:46.325Z,11.83
2018-09-15T00:35:14.607Z,10.87
2018-09-15T00:37:42.632Z,10.10
2018-09-15T00:40:10.685Z,10.00
2018-09-15T00:42:38.703Z,10.23
2018-09-15T00:45:06.733Z,10.37
2018-09-15T00:47:34.750Z,9.13
2018-09-15T00:50:02.752Z,10.40
2018-09-15T00:52:30.913Z,10.13
2018-09-15T00:54:58.926Z,9.70
2018-09-15T00:57:27.217Z,9.17
2018-09-15T00:59:55.260Z,10.07
2018-09-15T01:02:23.296Z,10.00
2018-09-15T01:04:51.328Z,10.00
2018-09-15T01:07:19.642Z,9.27
2018-09-15T01:09:47.706Z,10.07
2018-09-15T01:12:15.886Z,10.23
2018-09-15T01:14:43.905Z,9.33
2018-09-15T01:17:11.957Z,9.57
2018-09-15T01:19:40.071Z,9.37
2018-09-15T01:22:08.445Z,9.23
2018-09-15T01:24:36.521Z,9.20
2018-09-15T01:27:04.701Z,9.83
2018-09-15T01:29:32.738Z,10.10
2018-09-15T01:32:00.812Z,9.60
2018-09-15T01:34:28.842Z,10.20
2018-09-15T01:36:57.136Z,10.53
2018-09-15T01:39:25.144Z,11.57
2018-09-15T01:41:53.260Z,11.30
2018-09-15T01:44:21.267Z,10.70
2018-09-15T01:46:49.312Z,12.03
2018-09-15T01:49:17.348Z,13.00
2018-09-15T01:51:45.357Z,12.23
2018-09-15T01:54:13.408Z,13.17
2018-09-15T01:56:41.408Z,13.40
2018-09-15T01:59:09.502Z,13.53
2018-09-15T02:01:37.541Z,12.30
2018-09-15T02:04:05.577Z,12.40
2018-09-15T02:06:33.598Z,12.60
2018-09-15T02:09:01.771Z,11.90
2018-09-15T02:11:29.803Z,13.27
2018-09-15T02:13:58.012Z,11.70
2018-09-15T02:16:26.040Z,11.40
2018-09-15T02:18:54.037Z,11.17
2018-09-15T02:21:22.180Z,11.17
2018-09-15T02:23:50.199Z,10.90
2018-09-15T02:26:18.344Z,11.90
2018-09-15T02:28:46.380Z,11.77
2018-09-15T02:31:14.521Z,11.30
2018-09-15T02:33:42.574Z,11.63
2018-09-15T02:36:10.740Z,10.73
2018-09-15T02:38:38.777Z,10.30
2018-09-15T02:41:06.785Z,10.20
2018-09-15T02:43:34.821Z,9.63
2018-09-15T02:46:02.860Z,9.63
2018-09-15T02:48:31.008Z,9.43
2018-09-15T02:50:59.013Z,8.97
2018-09-15T02:53:33.834Z,8.40
2018-09-15T02:56:01.898Z,9.23
2018-09-15T02:58:29.909Z,8.30
2018-09-15T03:00:58.193Z,8.40
2018-09-15T03:03:26.258Z,6.43
2018-09-15T03:05:54.506Z,7.50
2018-09-15T03:08:22.563Z,6.90
2018-09-15T03:10:50.621Z,7.87
2018-09-15T03:13:18.677Z,7.50
2018-09-15T03:15:46.684Z,6.97
2018-09-15T03:18:14.742Z,7.63
2018-09-15T03:20:42.781Z,7.73
2018-09-15T03:23:10.826Z,6.97
2018-09-15T03:25:38.860Z,6.73
2018-09-15T03:28:06.896Z,7.40
2018-09-15T03:30:35.027Z,6.73
2018-09-15T03:33:03.000Z,6.40
2018-09-15T03:35:31.148Z,6.43
2018-09-15T03:37:59.135Z,6.47
2018-09-15T03:40:27.304Z,7.20
2018-09-15T03:42:55.342Z,6.57
2018-09-15T03:45:23.442Z,6.73
2018-09-15T03:47:51.483Z,7.30
2018-09-15T03:50:19.772Z,6.53
2018-09-15T03:52:47.757Z,6.20
2018-09-15T03:55:15.791Z,6.10
2018-09-15T03:57:43.826Z,5.70
2018-09-15T04:00:11.880Z,5.93
2018-09-15T04:02:39.971Z,6.20
2018-09-15T04:05:08.000Z,5.73
2018-09-15T04:07:36.021Z,5.07
2018-09-15T04:10:04.041Z,5.50
2018-09-15T04:12:32.158Z,4.83
2018-09-15T04:15:00.205Z,5.00
2018-09-15T04:17:28.246Z,4.90
2018-09-15T04:19:56.252Z,5.07
2018-09-15T04:22:24.378Z,5.33
2018-09-15T04:24:52.464Z,5.20
2018-09-15T04:27:20.457Z,5.20
2018-09-15T04:29:48.452Z,5.23
2018-09-15T04:32:16.504Z,5.10
2018-09-15T04:34:44.490Z,4.20
2018-09-15T04:37:12.564Z,5.83
2018-09-15T04:39:40.569Z,5.27
2018-09-15T04:42:08.672Z,4.80
2018-09-15T04:44:36.674Z,5.00
2018-09-15T04:47:04.913Z,5.23
2018-09-15T04:49:32.898Z,5.70
2018-09-15T04:52:00.996Z,6.40
2018-09-15T04:54:29.036Z,5.53
2018-09-15T04:56:57.029Z,5.37
2018-09-15T04:59:25.042Z,5.30
2018-09-15T05:01:53.066Z,5.53
2018-09-15T05:04:21.157Z,5.17
2018-09-15T05:06:49.183Z,5.57
2018-09-15T05:09:17.227Z,5.47
2018-09-15T05:11:45.242Z,5.27
2018-09-15T05:14:13.237Z,5.50
2018-09-15T05:16:41.253Z,5.40
2018-09-15T05:19:09.269Z,4.97
2018-09-15T05:21:37.285Z,5.90
2018-09-15T05:24:05.582Z,5.47
2018-09-15T05:26:33.777Z,5.17
2018-09-15T05:29:02.568Z,5.07
2018-09-15T05:31:30.610Z,5.30
2018-09-15T05:33:58.605Z,4.73
2018-09-15T05:36:26.700Z,4.20
2018-09-15T05:38:54.829Z,3.90
2018-09-15T05:41:22.885Z,3.97
2018-09-15T05:43:50.896Z,5.20
2018-09-15T05:46:19.031Z,3.50
2018-09-15T05:48:47.043Z,3.27
2018-09-15T05:51:15.076Z,3.40
2018-09-15T05:53:43.117Z,3.10
2018-09-15T05:56:11.202Z,2.87
2018-09-15T05:58:39.252Z,3.50
2018-09-15T06:01:07.449Z,2.93
2018-09-15T06:03:35.478Z,3.67
2018-09-15T06:06:03.873Z,3.27
2018-09-15T06:08:31.872Z,3.77
2018-09-15T06:10:59.917Z,3.53
2018-09-15T06:13:27.993Z,3.90
2018-09-15T06:15:56.070Z,4.10
2018-09-15T06:18:24.169Z,4.20
2018-09-15T06:20:52.518Z,3.97
2018-09-15T06:23:20.522Z,4.20
2018-09-15T06:25:48.559Z,4.13
2018-09-15T06:28:16.552Z,3.87
2018-09-15T06:30:44.580Z,4.90
2018-09-15T06:33:12.622Z,4.80
2018-09-15T06:35:40.646Z,4.90
2018-09-15T06:38:08.732Z,5.20
2018-09-15T06:40:36.750Z,5.10
2018-09-15T06:43:05.771Z,5.17
2018-09-15T06:45:33.868Z,4.87
2018-09-15T06:48:01.820Z,4.90
2018-09-15T06:50:29.867Z,5.07
2018-09-15T06:52:57.873Z,4.97
2018-09-15T06:55:26.626Z,6.17
2018-09-15T06:57:54.835Z,5.17
2018-09-15T07:00:22.862Z,4.20
2018-09-15T07:02:51.786Z,5.03
2018-09-15T07:05:19.948Z,4.87
2018-09-15T07:07:47.996Z,4.20
2018-09-15T07:10:16.034Z,5.10
2018-09-15T07:12:44.068Z,4.60
2018-09-15T07:15:12.073Z,4.60
2018-09-15T07:17:40.089Z,4.87
2018-09-15T07:20:08.154Z,3.83
2018-09-15T07:22:36.191Z,4.70
2018-09-15T07:25:04.909Z,4.57
2018-09-15T07:27:33.957Z,4.10
2018-09-15T07:30:01.977Z,3.80
2018-09-15T07:32:30.217Z,4.30
2018-09-15T07:34:58.221Z,4.83
2018-09-15T07:37:26.296Z,4.60
2018-09-15T07:39:54.321Z,4.10
2018-09-15T07:42:23.668Z,5.50
2018-09-15T07:44:51.713Z,3.87
2018-09-15T07:47:19.785Z,4.40
2018-09-15T07:49:47.879Z,4.07
2018-09-15T07:52:15.894Z,4.80
2018-09-15T07:54:43.968Z,4.93
2018-09-15T07:57:12.085Z,4.47
2018-09-15T07:59:40.130Z,4.43
2018-09-15T08:02:13.408Z,5.10
2018-09-15T08:04:41.421Z,5.27
2018-09-15T08:07:09.496Z,5.73
2018-09-15T08:09:37.525Z,4.50
2018-09-15T08:12:05.564Z,5.17
2018-09-15T08:14:33.609Z,4.30
2018-09-15T08:17:01.609Z,5.50
2018-09-15T08:19:29.660Z,5.73
2018-09-15T08:21:57.820Z,5.50
2018-09-15T08:24:25.845Z,5.37
2018-09-15T08:26:53.857Z,5.80
2018-09-15T08:29:22.073Z,6.40
2018-09-15T08:31:50.618Z,4.43
2018-09-15T08:34:18.922Z,5.10
2018-09-15T08:36:47.098Z,5.00
2018-09-15T08:39:15.140Z,5.27
2018-09-15T08:41:43.229Z,5.00
2018-09-15T08:44:11.563Z,5.30
2018-09-15T08:46:39.737Z,4.40
2018-09-15T08:49:08.214Z,4.97
2018-09-15T08:51:36.334Z,4.47
2018-09-15T08:54:04.370Z,5.20
2018-09-15T08:56:33.530Z,5.57
2018-09-15T08:59:01.620Z,5.40
2018-09-15T09:01:29.740Z,5.07
2018-09-15T09:03:57.998Z,5.37
2018-09-15T09:06:26.085Z,5.10
2018-09-15T09:08:54.193Z,5.30
2018-09-15T09:11:22.218Z,6.47
2018-09-15T09:13:50.277Z,4.60
2018-09-15T09:16:18.315Z,5.77
2018-09-15T09:18:46.714Z,6.07
2018-09-15T09:21:14.870Z,6.00
2018-09-15T09:23:42.917Z,6.00
2018-09-15T09:26:11.139Z,5.80
2018-09-15T09:28:39.205Z,5.63
2018-09-15T09:31:07.471Z,6.77
2018-09-15T09:33:35.497Z,5.80
2018-09-15T09:36:03.549Z,5.87
2018-09-15T09:38:31.581Z,6.50
2018-09-15T09:40:59.595Z,5.70
2018-09-15T09:43:27.632Z,6.37
2018-09-15T09:45:55.644Z,6.17
2018-09-15T09:48:23.679Z,6.43
2018-09-15T09:50:51.676Z,6.60
2018-09-15T09:53:19.904Z,6.50
2018-09-15T09:55:47.937Z,6.03
2018-09-15T09:58:16.033Z,6.43
2018-09-15T10:00:49.564Z,6.43
2018-09-15T10:03:17.592Z,5.80
2018-09-15T10:05:45.637Z,6.87
2018-09-15T10:08:13.649Z,5.60
2018-09-15T10:10:41.656Z,6.90
2018-09-15T10:13:09.695Z,5.60
2018-09-15T10:15:37.740Z,5.60
2018-09-15T10:18:05.772Z,5.33
2018-09-15T10:20:33.897Z,4.67
2018-09-15T10:23:01.929Z,4.67
2018-09-15T10:25:29.967Z,3.33
2018-09-15T10:27:57.996Z,4.23
2018-09-15T10:30:26.021Z,4.37
2018-09-15T10:32:54.121Z,3.63
2018-09-15T10:35:22.152Z,3.87
2018-09-15T10:37:50.153Z,3.17
2018-09-15T10:40:18.233Z,3.40
2018-09-15T10:42:46.250Z,3.60
2018-09-15T10:45:14.401Z,3.13
2018-09-15T10:47:42.446Z,3.40
2018-09-15T10:50:10.659Z,4.40
2018-09-15T10:52:38.690Z,2.97
2018-09-15T10:55:06.719Z,2.40
2018-09-15T10:57:34.742Z,3.27
2018-09-15T11:00:02.732Z,3.33
2018-09-15T11:02:30.750Z,2.80
2018-09-15T11:04:58.805Z,3.00
2018-09-15T11:07:26.878Z,3.03
2018-09-15T11:09:54.891Z,2.60
2018-09-15T11:12:22.963Z,2.80
2018-09-15T11:14:50.965Z,2.57
2018-09-15T11:17:18.989Z,2.50
2018-09-15T11:19:46.998Z,2.13
2018-09-15T11:22:15.006Z,2.47
2018-09-15T11:24:42.996Z,2.70
2018-09-15T11:27:11.015Z,2.20
2018-09-15T11:29:39.024Z,2.03
2018-09-15T11:32:07.065Z,2.47
2018-09-15T11:34:35.069Z,2.50
2018-09-15T11:37:03.077Z,2.70
2018-09-15T11:39:31.080Z,2.77
2018-09-15T11:41:59.096Z,2.60
2018-09-15T11:44:27.152Z,2.23
2018-09-15T11:46:55.171Z,2.33
2018-09-15T11:49:23.166Z,3.17
2018-09-15T11:51:51.416Z,2.23
2018-09-15T11:54:19.440Z,2.50
2018-09-15T11:56:47.483Z,1.90
2018-09-15T11:59:15.470Z,2.10
2018-09-15T12:01:43.501Z,2.77
2018-09-15T12:04:11.520Z,2.13
2018-09-15T12:06:39.544Z,2.60
2018-09-15T12:09:08.493Z,2.37
2018-09-15T12:11:36.541Z,2.27
2018-09-15T12:14:04.590Z,2.13
2018-09-15T12:16:32.668Z,3.00
2018-09-15T12:19:00.668Z,4.03
2018-09-15T12:21:28.815Z,3.17
2018-09-15T12:23:56.778Z,2.80
2018-09-15T12:26:25.839Z,2.83
2018-09-15T12:28:53.957Z,2.37
2018-09-15T12:31:22.012Z,3.23
2018-09-15T12:33:50.077Z,3.07
2018-09-15T12:36:18.130Z,3.00
2018-09-15T12:38:46.202Z,3.00
2018-09-15T12:41:14.204Z,2.27
2018-09-15T12:43:42.202Z,2.27
2018-09-15T12:46:10.261Z,2.33
2018-09-15T12:48:38.269Z,2.50
2018-09-15T12:51:06.055Z,2.53
2018-09-15T12:53:34.097Z,2.33
2018-09-15T12:56:02.113Z,3.07
2018-09-15T12:58:30.156Z,2.90
2018-09-15T13:00:58.167Z,3.73
2018-09-15T13:03:26.199Z,3.10
2018-09-15T13:05:54.240Z,2.73
2018-09-15T13:08:22.259Z,3.03
2018-09-15T13:10:50.329Z,2.40
2018-09-15T13:13:18.392Z,2.40
2018-09-15T13:15:46.456Z,2.30
2018-09-15T13:18:14.532Z,2.40
2018-09-15T13:20:42.581Z,2.13
2018-09-15T13:23:10.609Z,2.30
2018-09-15T13:25:38.696Z,2.67
2018-09-15T13:28:06.844Z,2.20
2018-09-15T13:30:34.932Z,2.50
2018-09-15T13:33:02.968Z,2.50
2018-09-15T13:35:30.992Z,2.50
2018-09-15T13:37:59.104Z,2.30
2018-09-15T13:40:27.048Z,2.27
2018-09-15T13:42:55.197Z,2.50
2018-09-15T13:45:23.230Z,2.03
2018-09-15T13:47:51.293Z,1.77
2018-09-15T13:50:19.335Z,2.07
2018-09-15T13:52:47.373Z,2.20
2018-09-15T13:55:15.466Z,1.87
2018-09-15T13:57:43.502Z,1.67
2018-09-15T14:00:11.541Z,2.20
2018-09-15T14:02:42.463Z,2.97
2018-09-15T14:05:11.513Z,2.27
2018-09-15T14:07:39.890Z,2.57
2018-09-15T14:10:08.113Z,2.43
2018-09-15T14:12:36.120Z,1.80
2018-09-15T14:15:04.168Z,2.50
2018-09-15T14:17:32.400Z,2.40
2018-09-15T14:20:00.640Z,2.33
2018-09-15T14:22:28.715Z,2.50
2018-09-15T14:24:56.740Z,3.67
2018-09-15T14:27:24.729Z,3.80
2018-09-15T14:29:52.725Z,2.27
2018-09-15T14:32:20.761Z,2.27
2018-09-15T14:34:48.943Z,2.70
2018-09-15T14:37:17.156Z,3.17
2018-09-15T14:39:45.165Z,3.40
2018-09-15T14:42:13.200Z,1.97
2018-09-15T14:44:41.197Z,2.63
2018-09-15T14:47:09.285Z,2.97
2018-09-15T14:49:37.293Z,2.30
2018-09-15T14:52:05.485Z,2.90
2018-09-15T14:54:33.508Z,2.30
2018-09-15T14:57:01.549Z,3.00
2018-09-15T14:59:29.559Z,2.37
2018-09-15T15:01:57.581Z,2.37
2018-09-15T15:04:25.623Z,2.17
2018-09-15T15:06:53.604Z,2.90
2018-09-15T15:09:21.606Z,2.40
2018-09-15T15:11:49.648Z,2.40
2018-09-15T15:14:17.656Z,3.60
2018-09-15T15:16:45.692Z,3.10
2018-09-15T15:19:13.725Z,2.37
2018-09-15T15:21:41.804Z,1.97
2018-09-15T15:24:10.128Z,2.10
2018-09-15T15:26:38.211Z,2.00
2018-09-15T15:29:06.185Z,2.00
2018-09-15T15:31:34.308Z,2.93
2018-09-15T15:34:02.227Z,2.80
2018-09-15T15:36:30.244Z,2.00
2018-09-15T15:38:58.285Z,2.53
2018-09-15T15:41:26.287Z,2.13
2018-09-15T15:43:54.335Z,1.37
2018-09-15T15:46:22.353Z,1.63
2018-09-15T15:48:50.353Z,2.20
2018-09-15T15:51:18.412Z,2.07
2018-09-15T15:53:46.366Z,1.27
2018-09-15T15:56:14.378Z,1.70
2018-09-15T15:58:42.543Z,1.33
2018-09-15T16:01:10.416Z,1.67
2018-09-15T16:03:38.404Z,1.40
2018-09-15T16:06:06.597Z,1.10
2018-09-15T16:08:34.606Z,1.47
2018-09-15T16:11:02.705Z,1.53
2018-09-15T16:13:30.640Z,1.50
2018-09-15T16:15:58.686Z,1.40
2018-09-15T16:18:26.793Z,1.27
2018-09-15T16:20:54.809Z,1.40
2018-09-15T16:23:22.845Z,1.23
2018-09-15T16:25:50.840Z,1.47
2018-09-15T16:28:18.856Z,2.13
2018-09-15T16:30:46.861Z,1.90
2018-09-15T16:33:14.892Z,1.67
2018-09-15T16:35:42.958Z,1.30
2018-09-15T16:38:10.961Z,1.50
2018-09-15T16:40:39.197Z,1.60
2018-09-15T16:43:07.382Z,1.50
2018-09-15T16:45:35.767Z,2.10
2018-09-15T16:48:03.901Z,1.87
2018-09-15T16:50:31.968Z,1.53
2018-09-15T16:52:59.984Z,1.43
2018-09-15T16:55:28.030Z,1.90
2018-09-15T16:57:56.072Z,2.33
2018-09-15T17:00:24.072Z,1.57
2018-09-15T17:02:52.186Z,1.67
2018-09-15T17:05:20.248Z,1.57
2018-09-15T17:07:48.264Z,1.73
2018-09-15T17:10:16.411Z,2.90
2018-09-15T17:12:44.364Z,2.63
2018-09-15T17:15:12.480Z,2.67
2018-09-15T17:17:40.509Z,2.47
2018-09-15T17:20:08.525Z,3.87
2018-09-15T17:22:36.637Z,2.40
2018-09-15T17:25:04.589Z,1.90
2018-09-15T17:27:32.592Z,1.30
2018-09-15T17:30:00.594Z,1.80
2018-09-15T17:32:28.652Z,1.60
2018-09-15T17:34:56.656Z,1.37
2018-09-15T17:37:24.689Z,2.00
2018-09-15T17:39:53.733Z,3.20
2018-09-15T17:42:21.800Z,3.10
2018-09-15T17:44:49.850Z,3.93
2018-09-15T17:47:19.889Z,1.70
2018-09-15T17:49:47.962Z,2.80
2018-09-15T17:52:16.045Z,2.67
2018-09-15T17:54:44.155Z,1.70
2018-09-15T17:57:12.096Z,1.83
2018-09-15T17:59:40.117Z,1.90
2018-09-15T18:02:08.184Z,2.10
2018-09-15T18:04:36.217Z,1.73
2018-09-15T18:07:04.243Z,1.60
2018-09-15T18:09:32.292Z,1.90
2018-09-15T18:12:00.328Z,1.73
2018-09-15T18:14:28.412Z,1.67
2018-09-15T18:16:56.424Z,2.00
2018-09-15T18:19:25.441Z,1.97
2018-09-15T18:21:53.525Z,1.73
2018-09-15T18:24:21.536Z,2.37
2018-09-15T18:26:49.577Z,1.97
2018-09-15T18:29:17.584Z,1.07
2018-09-15T18:31:45.635Z,1.63
2018-09-15T18:34:13.701Z,1.20
2018-09-15T18:36:41.903Z,1.70
2018-09-15T18:39:10.721Z,1.33
2018-09-15T18:41:38.779Z,1.43
2018-09-15T18:44:07.036Z,1.20
2018-09-15T18:46:35.313Z,1.33
2018-09-15T18:49:03.637Z,1.30
2018-09-15T18:51:31.656Z,1.67
2018-09-15T18:53:59.878Z,2.00
2018-09-15T18:56:28.032Z,2.00
2018-09-15T18:58:55.991Z,3.13
2018-09-15T19:01:25.152Z,3.00
2018-09-15T19:03:53.132Z,2.20
2018-09-15T19:06:22.170Z,2.00
2018-09-15T19:08:50.200Z,2.03
2018-09-15T19:11:18.208Z,1.77
2018-09-15T19:13:46.208Z,2.23
2018-09-15T19:16:14.237Z,2.10
2018-09-15T19:18:42.253Z,2.70
2018-09-15T19:21:10.316Z,1.97
2018-09-15T19:23:38.288Z,2.20
2018-09-15T19:26:06.289Z,1.90
2018-09-15T19:28:34.321Z,2.13
2018-09-15T19:31:02.417Z,2.67
2018-09-15T19:33:30.401Z,2.47
2018-09-15T19:35:58.548Z,2.40
2018-09-15T19:38:26.639Z,2.47
2018-09-15T19:40:54.656Z,2.10
2018-09-15T19:43:22.736Z,2.20
2018-09-15T19:45:50.961Z,2.60
2018-09-15T19:48:19.013Z,1.90
2018-09-15T19:50:47.009Z,2.73
2018-09-15T19:53:15.076Z,2.50
2018-09-15T19:55:43.101Z,2.00
2018-09-15T19:58:12.194Z,1.90
2018-09-15T20:00:40.206Z,2.03
2018-09-15T20:03:08.240Z,1.50
2018-09-15T20:05:36.264Z,2.00
2018-09-15T20:08:04.512Z,2.20
2018-09-15T20:10:32.515Z,2.10
2018-09-15T20:13:00.653Z,4.33
2018-09-15T20:15:30.817Z,6.70
2018-09-15T20:17:58.732Z,6.07
2018-09-15T20:20:26.430Z,6.53
2018-09-15T20:22:55.480Z,5.90
2018-09-15T20:25:23.505Z,5.03
2018-09-15T20:27:51.561Z,2.93
2018-09-15T20:30:19.848Z,4.43
2018-09-15T20:32:47.988Z,3.90
2018-09-15T20:35:15.868Z,4.20
2018-09-15T20:37:43.913Z,3.80
2018-09-15T20:40:11.954Z,3.17
2018-09-15T20:42:40.497Z,2.40
2018-09-15T20:45:08.941Z,2.30
2018-09-15T20:47:37.451Z,1.93
2018-09-15T20:50:05.560Z,2.47
2018-09-15T20:52:33.591Z,2.73
2018-09-15T20:57:28.361Z,1.80
2018-09-15T20:59:56.316Z,1.83
2018-09-15T21:02:24.359Z,1.37
2018-09-15T21:04:52.348Z,1.50
2018-09-15T21:07:20.432Z,1.77
2018-09-15T21:09:48.457Z,1.50
2018-09-15T21:12:16.453Z,1.80
2018-09-15T21:14:44.483Z,2.13
2018-09-15T21:17:12.760Z,2.20
2018-09-15T21:19:40.864Z,1.60
2018-09-15T21:22:08.868Z,1.70
2018-09-15T21:24:36.864Z,1.60
2018-09-15T21:27:04.848Z,1.73
2018-09-15T21:29:32.903Z,1.60
2018-09-15T21:32:01.392Z,2.00
2018-09-15T21:34:29.492Z,1.33
2018-09-15T21:36:57.877Z,1.70
2018-09-15T21:39:25.904Z,1.40
2018-09-15T21:41:53.898Z,2.00
2018-09-15T21:44:21.967Z,2.00
2018-09-15T21:46:49.984Z,1.70
2018-09-15T21:49:18.077Z,2.00
2018-09-15T21:51:46.093Z,2.20
2018-09-15T21:54:14.094Z,1.90
2018-09-15T21:56:42.204Z,1.80
2018-09-15T21:59:10.220Z,1.80
2018-09-15T22:01:38.223Z,2.10
2018-09-15T22:04:11.600Z,2.50
2018-09-15T22:06:39.590Z,2.13
2018-09-15T22:09:08.925Z,1.90
2018-09-15T22:11:36.959Z,2.03
2018-09-15T22:14:05.333Z,2.27
2018-09-15T22:16:33.544Z,1.90
2018-09-15T22:19:01.658Z,3.10
2018-09-15T22:21:29.666Z,2.10
2018-09-15T22:23:57.704Z,1.70
2018-09-15T22:26:25.967Z,2.30
2018-09-15T22:28:53.956Z,2.33
2018-09-15T22:31:22.008Z,2.40
2018-09-15T22:33:50.028Z,2.60
2018-09-15T22:36:18.043Z,2.17
2018-09-15T22:38:48.016Z,2.20
2018-09-15T22:41:16.017Z,2.30
2018-09-15T22:43:44.013Z,2.73
2018-09-15T22:46:12.045Z,2.00
2018-09-15T22:48:40.056Z,2.10
2018-09-15T22:51:08.245Z,2.50
2018-09-15T22:53:36.324Z,2.00
2018-09-15T22:56:04.333Z,2.43
2018-09-15T22:58:32.310Z,2.27
2018-09-15T23:01:00.348Z,3.13
2018-09-15T23:03:28.537Z,4.30
2018-09-15T23:05:56.529Z,4.10
2018-09-15T23:08:24.533Z,4.20
2018-09-15T23:10:52.532Z,4.23
2018-09-15T23:13:20.508Z,4.10
2018-09-15T23:15:48.533Z,4.87
2018-09-15T23:18:16.692Z,4.53
2018-09-15T23:20:44.704Z,4.07
2018-09-15T23:23:12.760Z,4.90
2018-09-15T23:25:40.803Z,4.40
2018-09-15T23:28:08.809Z,4.40
2018-09-15T23:30:36.780Z,3.93
2018-09-15T23:33:05.380Z,3.70
2018-09-15T23:35:33.465Z,3.30
2018-09-15T23:38:01.500Z,3.50
2018-09-15T23:40:29.507Z,3.80
2018-09-15T23:42:57.491Z,3.57
2018-09-15T23:45:25.483Z,2.97
2018-09-15T23:47:53.476Z,3.80
2018-09-15T23:50:21.453Z,3.73
2018-09-15T23:52:49.441Z,3.87
2018-09-15T23:55:17.493Z,3.40
2018-09-15T23:57:45.489Z,3.00
